createdAt,value
2022-09-04T00:02:52.677Z,1020.9
2022-09-04T00:08:39.502Z,1021
2022-09-04T00:14:19.977Z,1021.1
2022-09-04T00:20:00.497Z,1021
2022-09-04T00:25:40.843Z,1021.1
2022-09-04T00:31:21.633Z,1021.2
2022-09-04T00:37:03.070Z,1021.2
2022-09-04T00:42:43.158Z,1021.2
2022-09-04T00:48:23.551Z,1021.2
2022-09-04T00:54:04.535Z,1021.3
2022-09-04T00:59:44.698Z,1021.4
2022-09-04T01:05:27.683Z,1021.4
2022-09-04T01:11:09.575Z,1021.5
2022-09-04T01:16:50.648Z,1021.5
2022-09-04T01:22:31.750Z,1021.5
2022-09-04T01:28:12.061Z,1021.6
2022-09-04T01:33:52.513Z,1021.5
2022-09-04T01:39:32.964Z,1021.6
2022-09-04T01:45:16.969Z,1021.6
2022-09-04T01:50:57.601Z,1021.7
2022-09-04T01:56:37.680Z,1021.8
2022-09-04T02:02:18.060Z,1021.8
2022-09-04T02:07:58.798Z,1021.8
2022-09-04T02:13:38.999Z,1021.9
2022-09-04T02:19:19.436Z,1021.9
2022-09-04T02:24:59.609Z,1021.9
2022-09-04T02:30:39.805Z,1021.9
2022-09-04T02:36:20.368Z,1022
2022-09-04T02:42:00.731Z,1022
2022-09-04T02:47:40.967Z,1022
2022-09-04T02:53:21.351Z,1022
2022-09-04T02:59:01.753Z,1022
2022-09-04T03:04:41.985Z,1022
2022-09-04T03:10:22.210Z,1022
2022-09-04T03:16:03.021Z,1022.2
2022-09-04T03:21:44.122Z,1022.3
2022-09-04T03:27:24.641Z,1022.3
2022-09-04T03:33:04.745Z,1022.3
2022-09-04T03:38:44.882Z,1022.4
2022-09-04T03:44:25.282Z,1022.4
2022-09-04T03:50:05.656Z,1022.5
2022-09-04T03:55:45.921Z,1022.5
2022-09-04T04:01:26.704Z,1022.5
2022-09-04T04:07:07.366Z,1022.5
2022-09-04T04:12:50.334Z,1022.6
2022-09-04T04:18:30.824Z,1022.7
2022-09-04T04:24:11.199Z,1022.7
2022-09-04T04:29:51.342Z,1022.7
2022-09-04T04:35:31.569Z,1022.8
2022-09-04T04:41:11.907Z,1022.8
2022-09-04T04:46:52.505Z,1022.9
2022-09-04T04:52:33.153Z,1022.9
2022-09-04T04:58:13.492Z,1023
2022-09-04T05:03:53.856Z,1023
2022-09-04T05:09:34.225Z,1023.1
2022-09-04T05:15:14.485Z,1023.3
2022-09-04T05:20:54.859Z,1023.3
2022-09-04T05:26:35.332Z,1023.4
2022-09-04T05:32:15.625Z,1023.4
2022-09-04T05:37:56.142Z,1023.5
2022-09-04T05:43:36.665Z,1023.5
2022-09-04T05:49:17.316Z,1023.5
2022-09-04T05:54:58.141Z,1022.4
2022-09-04T06:00:38.707Z,1021.4
2022-09-04T06:06:19.517Z,1020.4
2022-09-04T06:12:00.868Z,1019.5
2022-09-04T06:17:41.463Z,1019
2022-09-04T06:23:21.968Z,1018.7
2022-09-04T06:29:06.240Z,1018.4
2022-09-04T06:34:46.656Z,1018.2
2022-09-04T06:40:27.123Z,1017.9
2022-09-04T06:46:07.609Z,1017.8
2022-09-04T06:51:48.603Z,1017.6
2022-09-04T06:57:30.009Z,1017.4
2022-09-04T07:03:10.534Z,1017.3
2022-09-04T07:08:50.798Z,1017.4
2022-09-04T07:14:31.106Z,1017.3
2022-09-04T07:20:15.098Z,1017.4
2022-09-04T07:25:55.565Z,1017.5
2022-09-04T07:31:36.347Z,1017.5
2022-09-04T07:37:16.820Z,1017.6
2022-09-04T07:42:59.218Z,1017.6
2022-09-04T07:48:39.640Z,1017.6
2022-09-04T07:54:23.584Z,1017.7
2022-09-04T08:00:04.794Z,1017.8
2022-09-04T08:05:44.282Z,1017.8
2022-09-04T08:11:24.770Z,1017.8
2022-09-04T08:17:05.825Z,1017.9
2022-09-04T08:22:45.829Z,1017.9
2022-09-04T08:28:26.754Z,1017.9
2022-09-04T08:34:07.102Z,1018.1
2022-09-04T08:39:47.719Z,1018.1
2022-09-04T08:45:28.966Z,1018.1
2022-09-04T08:51:22.192Z,1018.1
2022-09-04T08:57:02.239Z,1018.1
2022-09-04T09:02:47.580Z,1018.1
2022-09-04T09:08:32.206Z,1018.2
2022-09-04T09:14:13.365Z,1018.2
2022-09-04T09:19:53.773Z,1018.2
2022-09-04T09:25:33.575Z,1018.2
2022-09-04T09:31:14.376Z,1018.2
2022-09-04T09:36:56.217Z,1018.3
2022-09-04T09:42:35.892Z,1018.1
2022-09-04T09:48:16.367Z,1018.2
2022-09-04T09:53:57.362Z,1018.1
2022-09-04T09:59:38.842Z,1018.1
2022-09-04T10:05:18.952Z,1018.1
2022-09-04T10:10:59.416Z,1018.1
2022-09-04T10:16:39.924Z,1018.1
2022-09-04T10:22:20.675Z,1018.1
2022-09-04T10:28:01.202Z,1018.1
2022-09-04T10:33:41.485Z,1018.1
2022-09-04T10:39:21.732Z,1018.1
2022-09-04T10:45:02.538Z,1018.1
2022-09-04T10:50:46.276Z,1018.1
2022-09-04T10:56:28.412Z,1018.1
2022-09-04T11:02:08.829Z,1018.1
2022-09-04T11:07:50.825Z,1018.1
2022-09-04T11:13:32.092Z,1018.1
2022-09-04T11:24:16.698Z,1018.1
2022-09-04T11:29:58.045Z,1018
2022-09-04T11:35:38.220Z,1018
2022-09-04T11:41:18.104Z,1018
2022-09-04T11:46:58.646Z,1018
2022-09-04T11:52:38.730Z,1018
2022-09-04T11:58:18.524Z,1018
2022-09-04T12:03:59.163Z,1018
2022-09-04T12:09:39.788Z,1018.1
2022-09-04T12:15:20.157Z,1018.2
2022-09-04T12:21:06.965Z,1018.2
2022-09-04T12:27:04.157Z,1018.2
2022-09-04T12:32:45.944Z,1018.1
2022-09-04T12:38:26.385Z,1018.2
2022-09-04T12:44:06.529Z,1018.1
2022-09-04T12:49:46.546Z,1018.1
2022-09-04T12:55:36.571Z,1018.1
2022-09-04T13:01:17.714Z,1018.1
2022-09-04T13:06:58.557Z,1018.1
2022-09-04T13:12:39.467Z,1018.1
2022-09-04T13:18:21.036Z,1018.2
2022-09-04T13:24:01.957Z,1018.2
2022-09-04T13:29:47.627Z,1018.2
2022-09-04T13:35:28.326Z,1018.1
2022-09-04T13:41:08.782Z,1018.2
2022-09-04T13:46:54.812Z,1018.2
2022-09-04T13:52:38.409Z,1018.1
2022-09-04T13:58:19.192Z,1018.1
2022-09-04T14:04:00.689Z,1018.2
2022-09-04T14:09:47.739Z,1018.2
2022-09-04T14:15:28.465Z,1018.1
2022-09-04T14:21:12.430Z,1018.2
2022-09-04T14:26:54.451Z,1018.1
2022-09-04T14:32:39.119Z,1018.1
2022-09-04T14:38:27.834Z,1018
2022-09-04T14:44:08.539Z,1018
2022-09-04T14:49:48.361Z,1018.1
2022-09-04T14:55:28.561Z,1018.1
2022-09-04T15:01:08.167Z,1017.9
2022-09-04T15:07:12.435Z,1018
2022-09-04T15:12:52.822Z,1018
2022-09-04T15:18:33.184Z,1017.9
2022-09-04T15:24:13.959Z,1017.9
2022-09-04T15:29:55.011Z,1017.9
2022-09-04T15:35:44.323Z,1017.8
2022-09-04T15:41:24.619Z,1017.9
2022-09-04T15:47:05.368Z,1017.9
2022-09-04T15:52:45.990Z,1017.9
2022-09-04T15:58:26.326Z,1018
2022-09-04T16:04:07.579Z,1018
2022-09-04T16:09:47.856Z,1018
2022-09-04T16:15:28.269Z,1017.8
2022-09-04T16:21:08.383Z,1017.8
2022-09-04T16:26:49.153Z,1017.9
2022-09-04T16:32:29.249Z,1017.8
2022-09-04T16:38:09.345Z,1017.8
2022-09-04T16:43:49.574Z,1017.8
2022-09-04T16:49:29.727Z,1017.9
2022-09-04T16:55:09.895Z,1017.8
2022-09-04T17:00:49.959Z,1017.7
2022-09-04T17:06:30.139Z,1017.7
2022-09-04T17:12:16.189Z,1017.8
2022-09-04T17:18:00.992Z,1017.7
2022-09-04T17:29:39.389Z,1017.7
2022-09-04T17:42:05.308Z,1017.8
2022-09-04T17:47:54.038Z,1017.9
2022-09-04T17:53:35.364Z,1017.8
2022-09-04T17:59:15.366Z,1018
2022-09-04T18:04:55.427Z,1018
2022-09-04T18:10:39.468Z,1018
2022-09-04T18:16:23.665Z,1018.1
2022-09-04T18:22:34.058Z,1018.1
2022-09-04T18:28:14.695Z,1018.2
2022-09-04T18:39:55.129Z,1018.3
2022-09-04T18:51:21.467Z,1018.4
2022-09-04T18:57:07.057Z,1018.5
2022-09-04T19:02:54.212Z,1018.6
2022-09-04T19:08:34.458Z,1018.7
2022-09-04T19:14:14.562Z,1018.7
2022-09-04T19:19:57.244Z,1018.7
2022-09-04T19:25:54.819Z,1018.8
2022-09-04T19:31:35.745Z,1018.8
2022-09-04T19:46:27.530Z,1018.9
2022-09-04T19:58:33.947Z,1018.8
2022-09-04T20:04:14.520Z,1018.8
2022-09-04T20:09:58.441Z,1019
2022-09-04T20:15:39.090Z,1019
2022-09-04T20:21:19.591Z,1019.1
2022-09-04T20:27:00.508Z,1019.1
2022-09-04T20:32:40.866Z,1019.2
2022-09-04T20:38:36.786Z,1019.4
2022-09-04T20:44:23.441Z,1019.5
2022-09-04T20:53:12.162Z,1019.6
2022-09-04T21:03:32.357Z,1019.6
2022-09-04T21:09:14.379Z,1019.5
2022-09-04T21:14:54.130Z,1019.7
2022-09-04T21:21:01.118Z,1019.8
2022-09-04T21:26:44.711Z,1020.1
2022-09-04T21:32:27.206Z,1020.5
2022-09-04T21:38:10.427Z,1020.6
2022-09-04T21:43:50.621Z,1020.6
2022-09-04T21:49:33.906Z,1020.5
2022-09-04T22:03:01.401Z,1020.4
2022-09-04T22:13:50.103Z,1019.8
2022-09-04T22:19:40.030Z,1019.7
2022-09-04T22:25:19.772Z,1020.1
2022-09-04T22:31:00.356Z,1020.3
2022-09-04T22:36:40.886Z,1020.5
2022-09-04T22:42:21.145Z,1020.6
2022-09-04T22:48:01.408Z,1020.7
2022-09-04T22:53:41.623Z,1020.9
2022-09-04T22:59:31.047Z,1021.3
2022-09-04T23:05:11.399Z,1021.6
2022-09-04T23:14:10.131Z,1022.3
2022-09-04T23:27:01.470Z,1021.7
2022-09-04T23:32:46.291Z,1020.9
2022-09-04T23:38:26.321Z,1020.9
2022-09-04T23:44:06.685Z,1020.6
2022-09-04T23:49:47.336Z,1020.4
2022-09-04T23:55:49.962Z,1020.4
